»·PEaware :: N6507W KSZP-KSBP

N6507W :: KSZP-KSBP

FLIGHT INFORMATION

Flight Status: Arrived
Operator: Privately registered:
United States
More flights under this callsign
Pilot: Jukka N. (18040)
Aircraft: PIPER PA-30 TWIN COMANCHE
(PA30)
More flights by this aircraft type
Origin: KSZP Santa Paula
United States
Destination: KSBP San Luis Co Regl
United States
More flights between these airports :: More routes between these airports
Route:
File this flight plan on PilotEdge
Remarks: English isn't native
Altitude:
(Current/Filed)
8,500ft
Speed:
(Current/Filed)
160kts
Departed: 11-Mar-19 09:38 AM
Arrived: 11-Mar-19 11:04 AM
Distance/Time
Traveled:
94nm/1:25
Distance/Time
To Go:
Arrived

Flight Plot

Page will automatically refresh every two minutes.

Flight plan parsing failed; only flown route is shown


Map Options




Map Legend


Flown Route
Filed Route
Departure Airport
Arrival Airport
Navaid (VOR, NDB)
Fix

Horizontal Profiles

Position Reports

Time Latitude Longitude Heading Altitude Ground
Speed
11-Mar-19 09:34 34.348403 -119.061018 102 248ft 0kts
11-Mar-19 09:35 34.348077 -119.060165 57 248ft 8kts
11-Mar-19 09:36 34.348908 -119.058416 112 248ft 1kts
11-Mar-19 09:37 34.345166 -119.065066 236 271ft 100kts
11-Mar-19 09:38 34.338649 -119.100434 285 1526ft 126kts
11-Mar-19 09:39 34.351721 -119.139827 314 2819ft 125kts
11-Mar-19 09:40 34.374780 -119.172851 314 3944ft 132kts
11-Mar-19 09:41 34.397860 -119.206997 314 4925ft 127kts
11-Mar-19 09:42 34.419414 -119.239897 314 5783ft 128kts
11-Mar-19 09:43 34.441962 -119.273451 314 6619ft 128kts
11-Mar-19 09:44 34.464911 -119.306615 314 7411ft 129kts
11-Mar-19 09:45 34.487995 -119.339873 314 8165ft 129kts
11-Mar-19 09:46 34.513543 -119.368967 339 8879ft 124kts
11-Mar-19 09:47 34.539499 -119.397734 311 9561ft 129kts
11-Mar-19 09:48 34.555254 -119.424686 308 10055ft 129kts
11-Mar-19 09:49 34.574314 -119.458197 308 10647ft 128kts
11-Mar-19 09:50 34.594464 -119.493628 307 11253ft 127kts
11-Mar-19 09:51 34.615335 -119.530240 307 11414ft 147kts
11-Mar-19 09:52 34.641622 -119.576127 307 10627ft 173kts
11-Mar-19 09:53 34.669328 -119.624553 307 9911ft 176kts
11-Mar-19 09:54 34.697202 -119.673678 307 9206ft 176kts
11-Mar-19 09:55 34.725018 -119.722807 307 8510ft 175kts
11-Mar-19 09:56 34.750380 -119.768090 307 8544ft 153kts
11-Mar-19 09:57 34.774727 -119.811074 308 8549ft 159kts
11-Mar-19 09:58 34.800217 -119.856106 307 8547ft 162kts
11-Mar-19 09:59 34.825795 -119.901559 307 8547ft 162kts
11-Mar-19 10:01 34.850921 -119.947369 292 8540ft 165kts
11-Mar-19 10:02 34.867521 -119.998328 308 8548ft 162kts
11-Mar-19 10:03 34.893736 -120.043147 309 8548ft 162kts
11-Mar-19 10:04 34.920082 -120.088699 309 8065ft 167kts
11-Mar-19 10:05 34.947061 -120.135339 309 7380ft 169kts
11-Mar-19 10:06 34.974008 -120.182064 310 6402ft 164kts
11-Mar-19 10:07 35.000128 -120.227240 310 5400ft 161kts
11-Mar-19 10:08 35.025926 -120.272051 310 4407ft 156kts
11-Mar-19 10:09 35.050259 -120.314440 311 3733ft 136kts
11-Mar-19 10:10 35.071161 -120.351586 297 3739ft 136kts
11-Mar-19 10:12 35.114906 -120.417226 315 3765ft 134kts
11-Mar-19 10:13 35.135448 -120.456170 303 3772ft 137kts
11-Mar-19 10:14 35.152245 -120.498342 266 3776ft 141kts
11-Mar-19 10:15 35.133774 -120.538327 269 3787ft 141kts
11-Mar-19 10:16 35.145103 -120.583109 286 3792ft 140kts
11-Mar-19 10:17 35.153158 -120.630214 283 3799ft 140kts
11-Mar-19 10:18 35.158317 -120.677689 275 3804ft 139kts
11-Mar-19 10:19 35.161417 -120.725032 275 3810ft 139kts
11-Mar-19 10:20 35.165847 -120.772524 276 3816ft 142kts
11-Mar-19 10:21 35.172490 -120.818419 330 3820ft 129kts
11-Mar-19 10:21 35.186999 -120.802168 108 3828ft 117kts
11-Mar-19 10:23 35.166804 -120.759552 115 3837ft 127kts
11-Mar-19 10:24 35.149209 -120.722127 117 3841ft 126kts
11-Mar-19 10:24 35.133025 -120.688816 116 3318ft 148kts
11-Mar-19 10:25 35.102111 -120.669567 230 2414ft 166kts
11-Mar-19 10:27 35.115480 -120.728123 311 1628ft 145kts
11-Mar-19 10:27 35.131544 -120.715631 112 1702ft 122kts
11-Mar-19 10:28 35.122699 -120.677397 84 1622ft 123kts
11-Mar-19 10:29 35.112095 -120.641246 117 370ft 108kts
11-Mar-19 10:30 35.100649 -120.620721 123 17ft 17kts
11-Mar-19 10:31 35.102337 -120.622607 32 17ft 5kts
11-Mar-19 10:32 35.102361 -120.622592 27 17ft 0kts
11-Mar-19 10:33 35.102361 -120.622592 27 17ft 0kts
11-Mar-19 10:34 35.102361 -120.622592 27 17ft 0kts
11-Mar-19 10:39 35.103552 -120.624283 214 17ft 0kts
11-Mar-19 10:40 35.103411 -120.624320 168 17ft 7kts
11-Mar-19 10:41 35.101519 -120.623168 121 17ft 20kts
11-Mar-19 10:42 35.099687 -120.619752 122 17ft 0kts
11-Mar-19 10:43 35.106126 -120.631763 301 325ft 107kts
11-Mar-19 10:44 35.123431 -120.641003 67 1825ft 115kts
11-Mar-19 10:45 35.133910 -120.600831 70 2306ft 131kts
11-Mar-19 10:46 35.144168 -120.557251 93 2298ft 135kts
11-Mar-19 10:47 35.127387 -120.515081 108 2292ft 133kts
11-Mar-19 10:48 35.141648 -120.476748 57 2294ft 126kts
11-Mar-19 10:49 35.145898 -120.435545 94 2291ft 127kts
11-Mar-19 10:50 35.135341 -120.396211 156 2286ft 122kts
11-Mar-19 10:51 35.109357 -120.416608 219 2296ft 115kts
11-Mar-19 10:52 35.092374 -120.450374 242 2289ft 116kts
11-Mar-19 10:53 35.077955 -120.486223 242 2294ft 116kts
11-Mar-19 10:54 35.073280 -120.522563 302 2295ft 112kts
11-Mar-19 10:55 35.098449 -120.529748 11 2295ft 99kts
11-Mar-19 10:56 35.122400 -120.514679 38 2293ft 96kts
11-Mar-19 10:57 35.143449 -120.497243 345 2294ft 104kts
11-Mar-19 10:58 35.161002 -120.528029 302 2303ft 111kts
11-Mar-19 10:59 35.177647 -120.560364 312 2296ft 111kts
11-Mar-19 11:00 35.201268 -120.584245 316 1487ft 112kts
11-Mar-19 11:01 35.219609 -120.611045 300 762ft 96kts
11-Mar-19 11:02 35.234554 -120.636232 299 220ft 64kts
11-Mar-19 11:03 35.237785 -120.640306 91 215ft 1kts
11-Mar-19 11:04 35.238721 -120.639363 258 215ft 0kts
11-Mar-19 11:05 35.238721 -120.639363 258 215ft 0kts
11-Mar-19 11:06 35.238721 -120.639363 258 215ft 0kts
11-Mar-19 11:07 35.238721 -120.639363 258 215ft 0kts
11-Mar-19 11:08 35.238721 -120.639363 258 215ft 0kts
11-Mar-19 11:09 35.238721 -120.639363 258 215ft 0kts

Navigation Log

Ident Type
Flight plan parsing failed, navigation log unavailable